Time;durP1;ratioP1;P1;durP2;ratioP2;P2;SDS_P1;SDS_P2;PMS_P1;PMS_P2;Temp;Humidity;BMP_temperature;BMP_pressure;BME280_temperature;BME280_humidity;BME280_pressure;Samples;Min_cycle;Max_cycle;Signal;HPM_P1;HPM_P2
2022/11/10 00:00:45;;;;;;;21.70;11.50;;;;;;;7.38;83.07;99341.38;101746;1299;76401;-24
2022/11/10 00:03:32;;;;;;;23.20;11.90;;;;;;;7.27;83.55;99342.23;101792;1297;76632;-24
2022/11/10 00:06:18;;;;;;;27.40;13.80;;;;;;;7.56;82.91;99343.55;101653;1308;75205;-24
2022/11/10 00:09:04;;;;;;;23.50;11.90;;;;;;;7.69;82.10;99344.80;101826;1298;61941;-24
2022/11/10 00:11:50;;;;;;;20.40;11.70;;;;;;;7.52;82.55;99343.59;101871;1304;61750;-24
2022/11/10 00:17:40;;;;;;;16.20;8.90;;;;;;;7.59;82.80;99341.95;102203;1295;75734;-24
2022/11/10 00:20:27;;;;;;;23.20;14.60;;;;;;;7.78;81.57;99342.48;102131;1301;75107;-23
2022/11/10 00:23:12;;;;;;;22.60;14.90;;;;;;;7.39;82.82;99336.29;102054;1290;63002;-25
2022/11/10 00:25:58;;;;;;;11.00;7.90;;;;;;;7.26;83.55;99341.78;102095;1301;62913;-24
2022/11/10 00:28:44;;;;;;;19.20;10.80;;;;;;;7.67;82.31;99336.27;102135;1293;76391;-24
2022/11/10 00:31:30;;;;;;;13.50;7.40;;;;;;;7.70;81.86;99330.73;102121;1294;76821;-24
2022/11/10 00:34:16;;;;;;;19.20;9.20;;;;;;;7.37;82.96;99333.17;102014;1302;74270;-24
2022/11/10 00:37:02;;;;;;;24.70;11.60;;;;;;;7.26;83.91;99339.34;101961;1298;63438;-24
2022/11/10 00:39:48;;;;;;;24.10;13.20;;;;;;;7.60;82.80;99333.05;102018;1302;63011;-23
2022/11/10 00:42:33;;;;;;;18.10;10.50;;;;;;;7.62;82.20;99330.52;102002;1300;76267;-24
2022/11/10 00:45:19;;;;;;;12.80;8.50;;;;;;;7.52;82.35;99329.45;102107;1301;76851;-24
2022/11/10 00:48:05;;;;;;;19.90;12.70;;;;;;;7.39;83.27;99329.41;102095;1301;74171;-24
2022/11/10 00:50:51;;;;;;;11.90;6.60;;;;;;;7.75;82.02;99319.70;102042;1301;61678;-24
2022/11/10 00:53:37;;;;;;;22.60;12.30;;;;;;;7.65;82.06;99315.98;102047;1294;61849;-23
2022/11/10 00:56:23;;;;;;;18.60;9.90;;;;;;;7.48;82.52;99312.56;101993;1300;75215;-24
2022/11/10 00:59:09;;;;;;;17.70;9.90;;;;;;;7.38;83.49;99312.90;101941;1293;77068;-24
2022/11/10 01:01:55;;;;;;;18.90;11.10;;;;;;;7.66;82.50;99313.00;102037;1301;75459;-24
2022/11/10 01:04:40;;;;;;;19.80;12.80;;;;;;;7.50;83.00;99310.61;102067;1301;62055;-24
2022/11/10 01:07:26;;;;;;;19.40;8.70;;;;;;;7.35;83.36;99315.63;102005;1294;61550;-24
2022/11/10 01:10:12;;;;;;;18.20;9.90;;;;;;;7.53;83.30;99309.34;101998;1292;76476;-24
2022/11/10 01:12:59;;;;;;;11.00;8.40;;;;;;;7.77;82.08;99309.67;102041;1292;76742;-24
2022/11/10 01:15:44;;;;;;;18.00;10.40;;;;;;;7.80;81.68;99309.52;102213;1301;73070;-24
2022/11/10 01:18:30;;;;;;;17.60;9.10;;;;;;;7.54;82.38;99309.11;102182;1302;62860;-24
2022/11/10 01:21:16;;;;;;;17.90;10.60;;;;;;;7.42;83.26;99300.52;102091;1302;62815;-24
2022/11/10 01:24:03;;;;;;;18.30;10.00;;;;;;;7.64;82.41;99298.09;102103;1301;76558;-24
2022/11/10 01:26:48;;;;;;;13.10;7.70;;;;;;;7.65;82.39;99294.77;102113;1301;76738;-24
2022/11/10 01:29:34;;;;;;;20.50;12.00;;;;;;;7.57;82.31;99300.30;102207;1301;75133;-24
2022/11/10 01:32:20;;;;;;;21.20;11.10;;;;;;;7.27;83.76;99299.58;102101;1300;64617;-24
2022/11/10 01:35:06;;;;;;;24.30;12.20;;;;;;;7.59;83.03;99299.46;102154;1300;61773;-27
2022/11/10 01:37:52;;;;;;;20.50;11.20;;;;;;;7.81;82.05;99303.52;102180;1302;75485;-25
2022/11/10 01:40:38;;;;;;;29.20;9.30;;;;;;;7.59;82.65;99306.38;102203;1299;75724;-25
2022/11/10 01:43:25;;;;;;;18.40;10.10;;;;;;;7.49;82.72;99302.15;102097;1294;75327;-26
2022/11/10 01:46:12;;;;;;;14.50;9.50;;;;;;;7.66;82.72;99301.23;102102;1301;62880;-25
2022/11/10 01:48:59;;;;;;;15.20;8.40;;;;;;;7.75;82.13;99297.52;102125;1299;61771;-26
2022/11/10 01:51:54;;;;;;;17.80;8.90;;;;;;;7.65;82.34;99295.45;101972;1302;76292;-26
2022/11/10 01:54:43;;;;;;;15.30;9.10;;;;;;;7.40;83.33;99297.34;102214;1301;75722;-25
2022/11/10 01:57:29;;;;;;;20.70;8.80;;;;;;;7.53;83.57;99294.63;102067;1294;73247;-24
2022/11/10 02:00:16;;;;;;;23.80;12.60;;;;;;;7.82;82.07;99294.50;102104;1301;61808;-25
2022/11/10 02:03:11;;;;;;;14.90;9.10;;;;;;;7.68;82.41;99290.39;102176;1302;62898;-24
2022/11/10 02:05:57;;;;;;;19.30;8.00;;;;;;;7.41;83.49;99294.39;101942;1297;76409;-24
2022/11/10 02:08:43;;;;;;;16.50;9.00;;;;;;;7.57;83.61;99289.91;101959;1302;76718;-25
2022/11/10 02:11:29;;;;;;;16.80;9.20;;;;;;;7.78;82.65;99291.13;102181;1292;73988;-25
2022/11/10 02:14:14;;;;;;;20.10;11.20;;;;;;;7.63;82.96;99286.77;102201;1302;61571;-25
2022/11/10 02:17:00;;;;;;;17.90;9.40;;;;;;;7.41;83.85;99296.29;101965;1302;61754;-24
2022/11/10 02:19:46;;;;;;;22.90;11.90;;;;;;;7.64;83.64;99297.05;102234;1301;76289;-25
2022/11/10 02:22:32;;;;;;;21.70;11.00;;;;;;;7.76;83.00;99296.10;102209;1302;76218;-25
2022/11/10 02:25:21;;;;;;;24.60;12.60;;;;;;;7.77;82.65;99302.93;102168;1301;74181;-25
2022/11/10 02:28:07;;;;;;;17.60;10.60;;;;;;;7.58;83.13;99305.75;102155;1294;62779;-25
2022/11/10 02:30:53;;;;;;;17.10;9.70;;;;;;;7.67;83.72;99308.77;102193;1293;61780;-23
2022/11/10 02:33:39;;;;;;;15.30;9.80;;;;;;;7.89;82.81;99307.90;102219;1294;76372;-23
2022/11/10 02:36:25;;;;;;;18.00;10.70;;;;;;;7.83;82.88;99313.95;102201;1301;76811;-23
2022/11/10 02:39:11;;;;;;;18.20;10.70;;;;;;;7.61;83.67;99317.12;102177;1294;75594;-23
2022/11/10 02:41:57;;;;;;;22.20;12.00;;;;;;;7.54;84.55;99320.84;102213;1301;64535;-22
2022/11/10 02:44:42;;;;;;;17.90;9.60;;;;;;;8.04;82.90;99320.17;102187;1295;62906;-23
2022/11/10 02:47:29;;;;;;;20.90;10.60;;;;;;;8.07;82.30;99317.79;102159;1294;76500;-23
2022/11/10 02:50:15;;;;;;;21.30;11.80;;;;;;;7.71;83.54;99327.15;102181;1301;76698;-23
2022/11/10 02:53:01;;;;;;;15.60;9.80;;;;;;;7.56;84.49;99332.48;101925;1298;75474;-23
2022/11/10 02:55:47;;;;;;;22.20;11.10;;;;;;;7.84;83.92;99329.98;102101;1301;61212;-23
2022/11/10 02:58:33;;;;;;;21.30;11.80;;;;;;;8.20;82.15;99326.91;102164;1300;61693;-23
2022/11/10 03:01:19;;;;;;;17.20;10.70;;;;;;;8.18;81.96;99322.55;102209;1301;76685;-23
2022/11/10 03:04:04;;;;;;;22.50;13.80;;;;;;;7.87;82.93;99320.79;102209;1301;76820;-23
2022/11/10 03:06:50;;;;;;;25.90;12.30;;;;;;;7.72;83.74;99324.55;102181;1294;74173;-23
2022/11/10 03:09:37;;;;;;;21.40;11.40;;;;;;;8.12;82.81;99321.55;102227;1295;62836;-23
2022/11/10 03:12:22;;;;;;;18.80;9.60;;;;;;;8.13;82.28;99322.02;102220;1301;62797;-23
2022/11/10 03:15:09;;;;;;;27.30;12.80;;;;;;;7.85;83.45;99324.70;102171;1296;76436;-23
2022/11/10 03:17:55;;;;;;;20.80;10.80;;;;;;;7.75;83.75;99327.94;102081;1302;74971;-23
2022/11/10 03:20:41;;;;;;;17.10;10.80;;;;;;;8.02;83.40;99328.96;102117;1294;75172;-23
2022/11/10 03:23:27;;;;;;;19.70;10.80;;;;;;;8.35;81.92;99326.43;102223;1300;61870;-22
2022/11/10 03:26:13;;;;;;;20.60;11.30;;;;;;;8.25;81.73;99328.30;102177;1301;61701;-23
2022/11/10 03:28:59;;;;;;;18.70;9.30;;;;;;;7.90;83.29;99321.61;102223;1295;76429;-23
2022/11/10 03:31:45;;;;;;;18.50;10.60;;;;;;;7.99;83.78;99323.45;102210;1300;75984;-23
2022/11/10 03:34:30;;;;;;;17.90;9.80;;;;;;;8.32;82.11;99323.19;102226;1294;74529;-23
2022/11/10 03:37:16;;;;;;;19.20;9.60;;;;;;;8.24;82.35;99318.54;102211;1302;62925;-23
2022/11/10 03:40:02;;;;;;;24.10;12.40;;;;;;;7.93;83.33;99320.59;102162;1301;62882;-23
2022/11/10 03:42:48;;;;;;;20.40;11.10;;;;;;;7.85;84.49;99316.42;102238;1299;76370;-23
2022/11/10 03:45:34;;;;;;;19.70;11.10;;;;;;;8.22;82.96;99315.52;102221;1301;76768;-23
2022/11/10 03:48:20;;;;;;;20.90;12.40;;;;;;;8.23;82.64;99318.09;102179;1301;74310;-23
2022/11/10 03:51:06;;;;;;;23.50;12.00;;;;;;;8.11;82.68;99316.60;102186;1301;63194;-23
2022/11/10 03:53:51;;;;;;;21.10;10.00;;;;;;;7.89;84.08;99317.57;102131;1294;61754;-23
2022/11/10 03:56:38;;;;;;;22.60;12.30;;;;;;;8.27;82.94;99318.14;102206;1293;76536;-23
2022/11/10 03:59:23;;;;;;;24.90;13.00;;;;;;;8.23;82.66;99319.16;102227;1294;76785;-23
2022/11/10 04:02:09;;;;;;;18.70;10.90;;;;;;;8.14;82.95;99327.33;102110;1297;75191;-23
2022/11/10 04:11:04;;;;;;;26.00;12.90;;;;;;;8.40;82.26;99331.96;102223;1294;76458;-25
2022/11/10 04:16:54;;;;;;;16.00;9.40;;;;;;;8.01;83.18;99331.80;102189;1294;75257;-24
2022/11/10 04:19:40;;;;;;;21.40;12.60;;;;;;;8.36;82.67;99332.75;102228;1302;62745;-25
2022/11/10 04:26:27;;;;;;;23.60;12.80;;;;;;;8.27;82.40;99331.48;102234;1294;76421;-23
2022/11/10 04:28:37;;;;;;;23.30;11.90;;;;;;;7.85;84.29;99330.77;102201;1301;75584;-23
2022/11/10 04:31:23;;;;;;;21.00;11.60;;;;;;;8.04;83.97;99335.77;102173;1295;75135;-24
2022/11/10 04:34:11;;;;;;;18.60;10.50;;;;;;;8.40;82.38;99336.86;102077;1305;62954;-24
2022/11/10 04:36:57;;;;;;;28.30;13.70;;;;;;;8.33;82.07;99338.34;101963;1302;62693;-24
2022/11/10 04:39:43;;;;;;;25.80;13.30;;;;;;;8.17;82.74;99345.12;102181;1294;75433;-24
2022/11/10 04:42:29;;;;;;;22.30;11.30;;;;;;;7.95;83.60;99341.36;102184;1294;76738;-24
2022/11/10 04:45:15;;;;;;;21.00;11.20;;;;;;;8.43;82.55;99345.98;102145;1301;75401;-24
2022/11/10 04:48:00;;;;;;;25.60;13.00;;;;;;;8.69;81.14;99343.54;102162;1301;63133;-24
2022/11/10 04:50:46;;;;;;;27.50;12.60;;;;;;;8.45;81.51;99338.39;102176;1298;61597;-25
2022/11/10 04:53:32;;;;;;;22.00;13.90;;;;;;;8.25;82.27;99339.04;102228;1301;75505;-27
2022/11/10 04:56:19;;;;;;;19.10;11.00;;;;;;;7.98;83.46;99337.40;102205;1295;76645;-25
2022/11/10 04:59:05;;;;;;;19.80;11.20;;;;;;;8.23;82.62;99340.06;102124;1295;75144;-25
2022/11/10 05:01:50;;;;;;;21.40;11.40;;;;;;;8.21;82.68;99342.76;102042;1294;61113;-26
2022/11/10 05:04:36;;;;;;;19.90;12.60;;;;;;;8.36;81.90;99345.08;102205;1301;62839;-25
2022/11/10 05:07:22;;;;;;;16.90;9.50;;;;;;;8.24;81.92;99339.84;102197;1302;75419;-27
2022/11/10 05:10:08;;;;;;;20.90;11.30;;;;;;;8.02;83.18;99339.34;102229;1293;74791;-23
2022/11/10 05:12:54;;;;;;;27.60;14.50;;;;;;;8.44;82.19;99348.65;102187;1302;74258;-23
2022/11/10 05:15:41;;;;;;;16.70;10.70;;;;;;;8.53;81.38;99348.63;102171;1294;61632;-23
2022/11/10 05:18:27;;;;;;;14.10;7.70;;;;;;;8.25;81.91;99347.52;102197;1297;61468;-23
2022/11/10 05:21:12;;;;;;;17.90;10.80;;;;;;;7.89;83.44;99348.48;102171;1301;75575;-24
2022/11/10 05:23:58;;;;;;;20.80;11.40;;;;;;;8.11;83.21;99353.29;102253;1302;75635;-23
2022/11/10 05:26:44;;;;;;;17.60;10.10;;;;;;;8.20;82.60;99358.23;102230;1301;75300;-23
2022/11/10 05:29:29;;;;;;;28.40;12.90;;;;;;;8.01;83.05;99358.06;102167;1301;62988;-24
2022/11/10 05:32:15;;;;;;;28.70;13.70;;;;;;;7.86;83.68;99364.90;102111;1301;61741;-23
2022/11/10 05:35:00;;;;;;;21.60;12.20;;;;;;;8.21;83.25;99367.97;102219;1302;74369;-23
2022/11/10 05:37:46;;;;;;;20.10;11.20;;;;;;;8.36;82.06;99367.92;102219;1301;76654;-24
2022/11/10 05:40:32;;;;;;;21.20;10.90;;;;;;;8.12;82.79;99360.27;102242;1301;73213;-23
2022/11/10 05:43:18;;;;;;;19.80;12.40;;;;;;;7.83;84.05;99365.83;102203;1294;62072;-23
2022/11/10 05:46:04;;;;;;;27.00;14.00;;;;;;;8.03;84.04;99366.97;102137;1301;61815;-23
2022/11/10 05:48:50;;;;;;;26.40;14.50;;;;;;;8.27;82.67;99361.76;102044;1295;76696;-23
2022/11/10 05:51:35;;;;;;;22.40;13.10;;;;;;;8.04;83.47;99366.18;102188;1293;76245;-23
2022/11/10 05:54:21;;;;;;;22.80;11.30;;;;;;;7.96;83.80;99371.20;102203;1294;75112;-23
2022/11/10 05:57:07;;;;;;;23.90;13.70;;;;;;;7.94;84.11;99374.80;102199;1294;64443;-23
2022/11/10 05:59:52;;;;;;;17.00;10.20;;;;;;;8.40;82.89;99376.65;102261;1301;61756;-23
2022/11/10 06:02:38;;;;;;;27.20;13.40;;;;;;;8.47;82.15;99378.77;102243;1301;76345;-24
2022/11/10 06:05:24;;;;;;;22.90;11.00;;;;;;;8.17;82.86;99377.41;102186;1301;75446;-24
2022/11/10 06:08:16;;;;;;;26.30;11.70;;;;;;;7.87;84.38;99381.98;102078;1300;75200;-24
2022/11/10 06:11:03;;;;;;;21.80;11.60;;;;;;;8.25;83.41;99381.61;102208;1301;61793;-24
2022/11/10 06:13:49;;;;;;;18.40;11.00;;;;;;;8.44;82.06;99387.56;102206;1294;61777;-23
2022/11/10 06:16:34;;;;;;;23.70;14.30;;;;;;;8.24;82.25;99385.66;102166;1301;76437;-23
2022/11/10 06:19:20;;;;;;;19.40;11.20;;;;;;;7.98;83.04;99388.17;102030;1302;75715;-23
2022/11/10 06:22:05;;;;;;;20.90;12.50;;;;;;;8.06;83.07;99389.56;101990;1300;74672;-23
2022/11/10 06:24:52;;;;;;;22.00;11.80;;;;;;;8.11;82.63;99389.46;102142;1294;62812;-23
2022/11/10 06:27:42;;;;;;;27.90;14.80;;;;;;;7.87;83.64;99391.13;102231;1301;61537;-23
2022/11/10 06:30:29;;;;;;;18.60;12.00;;;;;;;7.76;84.18;99392.56;101960;1301;76322;-23
2022/11/10 06:33:14;;;;;;;25.60;11.00;;;;;;;7.85;84.17;99394.89;101941;1302;76799;-23
2022/11/10 06:36:00;;;;;;;27.30;15.10;;;;;;;8.17;82.52;99394.91;102080;1301;75180;-23
2022/11/10 06:38:45;;;;;;;20.30;10.10;;;;;;;8.05;82.56;99397.92;102212;1300;61765;-23
2022/11/10 06:41:32;;;;;;;22.10;11.30;;;;;;;7.74;83.50;99397.17;102165;1297;61742;-23
2022/11/10 06:44:18;;;;;;;22.50;13.20;;;;;;;7.70;84.28;99401.02;102216;1294;75335;-23
2022/11/10 06:47:04;;;;;;;27.70;14.80;;;;;;;7.98;83.14;99402.39;102245;1301;77082;-23
2022/11/10 06:49:50;;;;;;;24.50;13.00;;;;;;;7.87;82.82;99393.71;102212;1299;75452;-24
2022/11/10 06:52:35;;;;;;;19.30;10.10;;;;;;;7.57;83.95;99394.96;102235;1301;62991;-24
2022/11/10 06:55:21;;;;;;;13.60;7.90;;;;;;;7.65;84.67;99393.27;102235;1301;62829;-24
2022/11/10 06:58:08;;;;;;;25.00;13.20;;;;;;;7.99;83.42;99397.48;102210;1294;76576;-24
2022/11/10 07:00:53;;;;;;;26.00;14.30;;;;;;;8.00;83.21;99397.38;101947;1294;74535;-23
2022/11/10 07:03:39;;;;;;;24.20;14.90;;;;;;;7.92;83.41;99400.00;102229;1294;74198;-24
2022/11/10 07:06:46;;;;;;;20.80;12.10;;;;;;;7.81;83.82;99400.15;102167;1294;62481;-25
2022/11/10 07:09:32;;;;;;;26.60;15.00;;;;;;;7.94;83.52;99400.89;101893;1298;62762;-25
2022/11/10 07:12:18;;;;;;;33.50;15.20;;;;;;;8.11;82.83;99405.69;102098;1299;76467;-25
2022/11/10 07:15:05;;;;;;;26.60;14.90;;;;;;;7.95;82.71;99408.79;102241;1294;75549;-25
2022/11/10 07:17:50;;;;;;;19.60;11.20;;;;;;;7.80;83.32;99409.56;102221;1301;75087;-25
2022/11/10 07:20:36;;;;;;;23.80;12.90;;;;;;;8.02;82.81;99412.83;102235;1301;62984;-25
2022/11/10 07:23:22;;;;;;;19.50;9.50;;;;;;;8.15;81.94;99415.96;102253;1299;61717;-25
2022/11/10 07:26:08;;;;;;;20.70;11.10;;;;;;;7.93;82.53;99415.67;102241;1292;76286;-25
2022/11/10 07:28:54;;;;;;;25.30;13.50;;;;;;;7.64;83.46;99420.77;102247;1301;75346;-25
2022/11/10 07:31:40;;;;;;;22.80;11.00;;;;;;;7.87;83.82;99424.87;102265;1302;75004;-25
2022/11/10 07:34:25;;;;;;;27.50;13.00;;;;;;;7.99;82.86;99427.54;102223;1299;62822;-25
2022/11/10 07:37:11;;;;;;;23.90;13.80;;;;;;;7.77;83.31;99431.02;102196;1299;61829;-23
2022/11/10 07:39:57;;;;;;;21.90;11.00;;;;;;;7.53;84.55;99436.97;102213;1294;75414;-25
2022/11/10 07:42:42;;;;;;;28.20;13.20;;;;;;;7.78;84.23;99434.60;102113;1301;76982;-25
2022/11/10 07:45:28;;;;;;;33.40;15.70;;;;;;;8.17;82.73;99429.99;102081;1300;75222;-24
2022/11/10 07:48:14;;;;;;;22.20;11.90;;;;;;;8.17;82.36;99431.02;102136;1301;62135;-24
2022/11/10 07:50:59;;;;;;;25.70;12.90;;;;;;;7.99;82.44;99431.72;102080;1291;61791;-24
2022/11/10 07:53:45;;;;;;;23.00;13.40;;;;;;;7.74;83.37;99433.46;102250;1302;76597;-24
2022/11/10 07:56:31;;;;;;;30.50;17.80;;;;;;;7.99;82.93;99430.64;102309;1295;75733;-24
2022/11/10 07:59:16;;;;;;;23.40;13.00;;;;;;;7.86;82.53;99428.21;102211;1301;75208;-24
2022/11/10 08:02:02;;;;;;;26.80;11.10;;;;;;;7.63;83.42;99428.63;102227;1301;62862;-24
2022/11/10 08:04:48;;;;;;;13.50;8.00;;;;;;;7.43;84.61;99429.33;102233;1285;62786;-24
2022/11/10 08:07:34;;;;;;;16.60;9.70;;;;;;;7.97;83.29;99428.35;102194;1299;76330;-24
2022/11/10 08:10:20;;;;;;;26.80;13.50;;;;;;;8.12;82.55;99432.73;102248;1301;76857;-24
2022/11/10 08:13:07;;;;;;;25.20;14.20;;;;;;;7.99;82.93;99436.02;102221;1294;75153;-25
2022/11/10 08:15:54;;;;;;;23.90;13.50;;;;;;;7.82;83.56;99446.05;102061;1288;64674;-26
2022/11/10 08:18:40;;;;;;;20.00;11.20;;;;;;;8.09;82.40;99445.23;102268;1291;61813;-26
2022/11/10 08:21:26;;;;;;;22.10;11.90;;;;;;;8.16;81.95;99442.72;102275;1299;76321;-26
2022/11/10 08:24:12;;;;;;;22.10;13.30;;;;;;;7.97;82.34;99444.48;102180;1292;75651;-26
2022/11/10 08:26:58;;;;;;;17.50;8.90;;;;;;;7.57;83.96;99443.67;102201;1299;74276;-23
2022/11/10 08:29:43;;;;;;;18.70;10.80;;;;;;;7.99;83.55;99444.87;102253;1294;61746;-23
2022/11/10 08:32:29;;;;;;;18.80;11.30;;;;;;;8.12;82.31;99440.71;102302;1292;61530;-25
2022/11/10 08:35:15;;;;;;;17.70;11.70;;;;;;;7.92;82.55;99435.42;102202;1299;76657;-24
2022/11/10 08:38:06;;;;;;;17.50;11.60;;;;;;;7.69;83.35;99437.73;102204;1299;74705;-24
2022/11/10 08:40:55;;;;;;;19.20;12.10;;;;;;;7.96;82.92;99443.98;102194;1294;75447;-24
2022/11/10 08:43:41;;;;;;;20.20;10.60;;;;;;;7.97;82.30;99446.71;102070;1299;61709;-24
2022/11/10 08:46:27;;;;;;;18.80;10.00;;;;;;;7.80;82.90;99453.29;102239;1301;62532;-23
2022/11/10 08:49:13;;;;;;;17.30;10.50;;;;;;;7.75;83.52;99455.00;102210;1302;75302;-24
2022/11/10 08:51:58;;;;;;;16.00;9.50;;;;;;;7.96;82.70;99454.88;102226;1295;75711;-24
2022/11/10 08:54:44;;;;;;;20.40;11.50;;;;;;;7.93;82.83;99462.16;102217;1296;75393;-24
2022/11/10 08:57:30;;;;;;;27.20;12.80;;;;;;;7.75;83.46;99467.10;102135;1299;61305;-24
2022/11/10 09:00:16;;;;;;;12.70;8.80;;;;;;;7.72;84.04;99466.75;102142;1299;61865;-23
2022/11/10 09:03:11;;;;;;;15.50;9.60;;;;;;;7.98;82.99;99466.98;101978;1294;75413;-24
2022/11/10 09:05:57;;;;;;;20.50;11.00;;;;;;;7.86;82.94;99469.36;102030;1299;76773;-24
2022/11/10 09:08:43;;;;;;;21.80;12.40;;;;;;;7.71;83.52;99470.61;102247;1299;74038;-24
2022/11/10 09:11:29;;;;;;;18.00;10.40;;;;;;;7.37;84.92;99469.75;102252;1299;63351;-24
2022/11/10 09:14:15;;;;;;;17.60;9.60;;;;;;;7.70;84.56;99468.46;102227;1301;62822;-24
2022/11/10 09:17:01;;;;;;;23.90;11.90;;;;;;;7.92;83.18;99470.17;102236;1293;76538;-24
2022/11/10 09:19:46;;;;;;;22.80;11.00;;;;;;;7.65;83.89;99469.81;102238;1294;75705;-24
2022/11/10 09:22:34;;;;;;;20.00;12.10;;;;;;;7.35;85.73;99470.95;102245;1298;74226;-23
2022/11/10 09:25:20;;;;;;;16.80;9.60;;;;;;;7.83;84.34;99470.53;102184;1300;61544;-24
2022/11/10 09:28:16;;;;;;;22.90;14.80;;;;;;;8.13;82.77;99464.71;102188;1299;62018;-24
2022/11/10 09:31:01;;;;;;;17.10;8.90;;;;;;;7.99;82.97;99466.11;101976;1299;76369;-23
2022/11/10 09:33:48;;;;;;;19.80;10.90;;;;;;;7.85;83.57;99470.61;102092;1301;76806;-24
2022/11/10 09:36:34;;;;;;;19.20;10.70;;;;;;;8.14;82.96;99469.28;102241;1301;75283;-24
2022/11/10 09:39:19;;;;;;;21.80;12.00;;;;;;;8.39;81.48;99469.38;102250;1291;61845;-24
2022/11/10 09:42:12;;;;;;;20.70;12.50;;;;;;;8.20;81.75;99471.35;102256;1301;61908;-24
2022/11/10 09:45:04;;;;;;;19.80;11.20;;;;;;;7.87;83.21;99478.26;101979;1294;76384;-24
2022/11/10 09:48:00;;;;;;;22.40;12.60;;;;;;;8.02;83.22;99476.63;102030;1297;75733;-24
2022/11/10 09:51:01;;;;;;;13.70;7.70;;;;;;;8.14;82.17;99481.55;102016;1299;74112;-24
2022/11/10 09:53:50;;;;;;;18.40;9.00;;;;;;;7.88;82.59;99490.13;102037;1304;61669;-24
2022/11/10 09:56:36;;;;;;;10.20;6.60;;;;;;;7.84;83.24;99497.48;102077;1299;62093;-24
2022/11/10 09:59:25;;;;;;;18.40;11.30;;;;;;;7.84;83.26;99491.95;102188;1294;74227;-24
2022/11/10 10:02:35;;;;;;;21.30;13.40;;;;;;;8.27;82.08;99484.88;102005;1302;74784;-24
2022/11/10 10:05:35;;;;;;;19.30;11.50;;;;;;;8.31;81.19;99475.50;102085;1302;75098;-24
2022/11/10 10:08:45;;;;;;;16.70;9.00;;;;;;;8.06;82.18;99471.23;102160;1303;61799;-24
2022/11/10 10:11:41;;;;;;;11.30;7.20;;;;;;;8.18;82.79;99460.39;102166;1302;61360;-24
2022/11/10 10:15:04;;;;;;;17.30;10.40;;;;;;;8.62;81.10;99455.15;102133;1301;76316;-24
2022/11/10 10:17:56;;;;;;;15.10;9.40;;;;;;;8.56;80.77;99452.40;102115;1294;73941;-24
2022/11/10 10:20:48;;;;;;;15.90;8.50;;;;;;;8.26;82.19;99464.04;102223;1301;75139;-24
2022/11/10 10:23:36;;;;;;;21.00;12.00;;;;;;;8.17;82.58;99473.25;101281;1296;1209699;-24
2022/11/10 10:26:50;;;;;;;20.70;10.20;;;;;;;8.48;81.17;99480.44;102078;1298;61678;-24
2022/11/10 10:29:42;;;;;;;18.80;10.00;;;;;;;8.28;81.51;99481.21;102056;1301;73972;-24
2022/11/10 10:32:28;;;;;;;15.90;8.60;;;;;;;8.05;82.26;99475.59;101964;1298;75636;-24
2022/11/10 10:35:14;;;;;;;17.00;8.50;;;;;;;8.23;82.05;99472.52;102101;1301;75178;-24
2022/11/10 10:38:00;;;;;;;15.10;9.20;;;;;;;8.45;80.77;99463.48;102008;1295;62868;-24
2022/11/10 10:40:47;;;;;;;17.20;9.80;;;;;;;8.39;80.90;99469.59;101956;1298;61886;-24
2022/11/10 10:43:33;;;;;;;15.00;9.50;;;;;;;8.24;81.46;99461.05;102249;1301;76485;-24
2022/11/10 10:46:23;;;;;;;21.30;9.70;;;;;;;8.43;81.83;99453.22;102215;1294;76852;-24
2022/11/10 10:49:19;;;;;;;16.80;8.10;;;;;;;8.73;80.21;99453.54;102134;1302;74232;-23
2022/11/10 10:52:16;;;;;;;16.80;10.90;;;;;;;8.38;80.89;99465.20;102157;1301;62910;-23
2022/11/10 10:55:06;;;;;;;15.40;9.10;;;;;;;8.12;82.43;99470.66;102002;1302;62241;-24
2022/11/10 10:57:57;;;;;;;16.90;9.10;;;;;;;8.24;82.21;99474.88;101966;1301;76456;-24
2022/11/10 11:00:44;;;;;;;20.60;12.60;;;;;;;8.66;80.62;99467.88;102211;1302;76885;-25
2022/11/10 11:03:33;;;;;;;21.20;12.50;;;;;;;8.66;80.08;99470.27;101916;1304;75002;-24
2022/11/10 11:06:27;;;;;;;20.50;11.90;;;;;;;8.51;80.62;99465.91;102052;1301;62991;-24
2022/11/10 11:09:13;;;;;;;15.50;9.90;;;;;;;8.24;81.56;99470.38;102089;1299;61925;-25
2022/11/10 11:12:07;;;;;;;19.90;13.20;;;;;;;8.51;81.64;99475.25;102235;1301;75423;-24
2022/11/10 11:15:13;;;;;;;17.70;10.80;;;;;;;9.00;79.86;99476.10;102174;1302;76738;-24
2022/11/10 11:18:01;;;;;;;20.70;13.80;;;;;;;8.83;79.46;99474.30;102130;1300;75257;-24
2022/11/10 11:20:59;;;;;;;17.10;10.40;;;;;;;8.37;80.90;99472.13;101920;1294;61244;-24
2022/11/10 11:24:02;;;;;;;21.60;13.60;;;;;;;8.13;82.31;99477.15;101899;1301;61625;-24
2022/11/10 11:27:04;;;;;;;19.30;10.50;;;;;;;8.73;80.70;99483.33;101912;1301;76518;-24
2022/11/10 11:30:01;;;;;;;14.60;9.60;;;;;;;8.78;79.62;99485.60;102070;1302;76799;-26
2022/11/10 11:32:57;;;;;;;9.40;6.60;;;;;;;8.30;81.42;99493.70;102163;1294;73351;-27
2022/11/10 11:35:58;;;;;;;20.00;11.00;;;;;;;8.09;82.30;99491.90;101981;1303;63352;-27
2022/11/10 11:39:13;;;;;;;23.30;10.20;;;;;;;8.51;81.31;99492.86;102022;1301;62733;-26
2022/11/10 11:42:17;;;;;;;17.90;10.20;;;;;;;8.55;80.55;99502.48;102188;1302;76254;-27
2022/11/10 11:45:12;;;;;;;16.70;9.80;;;;;;;8.33;81.45;99500.97;102236;1295;76909;-26
2022/11/10 11:48:04;;;;;;;17.20;10.40;;;;;;;8.12;82.48;99499.52;102204;1295;75319;-25
2022/11/10 11:50:56;;;;;;;16.90;11.20;;;;;;;8.41;82.46;99496.66;99164;1330;599825;-23
2022/11/10 11:54:06;;;;;;;18.00;10.80;;;;;;;8.69;80.84;99496.59;101067;1314;61187;-25
2022/11/10 11:56:52;;;;;;;19.00;11.70;;;;;;;8.50;81.48;99501.27;101141;1307;61833;-25
2022/11/10 11:59:44;;;;;;;11.40;6.80;;;;;;;8.47;81.73;99502.64;101037;1316;74734;-25
2022/11/10 12:02:46;;;;;;;20.90;10.30;;;;;;;8.72;80.80;99502.07;101025;1311;76678;-25
2022/11/10 12:06:15;;;;;;;17.90;11.00;;;;;;;8.82;79.74;99503.98;100296;1311;1081495;-24
2022/11/10 12:09:29;;;;;;;19.90;10.30;;;;;;;8.75;79.72;99503.76;101325;1305;61779;-24
2022/11/10 12:12:46;;;;;;;23.20;10.90;;;;;;;8.49;80.15;99509.65;101348;1311;62716;-23
2022/11/10 12:15:36;;;;;;;18.30;11.80;;;;;;;8.54;81.13;99516.75;102316;1297;74651;-23
2022/11/10 12:18:36;;;;;;;22.20;13.70;;;;;;;8.95;79.62;99503.63;102182;1302;77054;-23
2022/11/10 12:21:28;;;;;;;19.00;11.70;;;;;;;8.76;79.65;99498.36;102285;1299;75109;-23
2022/11/10 12:24:17;;;;;;;20.10;10.60;;;;;;;8.52;80.31;99494.73;102183;1297;62877;-24
2022/11/10 12:27:10;;;;;;;20.60;10.80;;;;;;;8.16;82.04;99497.05;102286;1292;62930;-24
2022/11/10 12:30:02;;;;;;;17.80;10.60;;;;;;;8.63;81.14;99502.80;102158;1298;75430;-24
2022/11/10 12:33:07;;;;;;;22.50;12.90;;;;;;;8.91;79.85;99498.39;102189;1297;75835;-24
2022/11/10 12:35:53;;;;;;;16.30;7.80;;;;;;;8.78;79.51;99502.20;102157;1301;75096;-24
2022/11/10 12:38:54;;;;;;;14.30;8.30;;;;;;;8.46;80.36;99498.91;102096;1299;61957;-24
2022/11/10 12:41:56;;;;;;;17.00;9.60;;;;;;;8.59;80.77;99497.05;102259;1294;61120;-24
2022/11/10 12:44:53;;;;;;;20.00;11.30;;;;;;;8.64;80.39;99502.24;102076;1301;75465;-24
2022/11/10 12:47:42;;;;;;;20.30;11.80;;;;;;;8.43;81.17;99505.82;102082;1299;75312;-24
2022/11/10 12:50:52;;;;;;;19.10;9.80;;;;;;;8.28;81.83;99498.19;102079;1302;75302;-24
2022/11/10 12:53:39;;;;;;;15.80;10.00;;;;;;;8.47;81.87;99495.39;102258;1301;61815;-24
2022/11/10 12:56:29;;;;;;;20.70;11.20;;;;;;;8.76;80.63;99498.34;102229;1300;62250;-24
2022/11/10 12:59:18;;;;;;;19.80;10.90;;;;;;;8.81;80.00;99498.58;102004;1302;73668;-24
2022/11/10 13:02:27;;;;;;;18.30;10.70;;;;;;;8.60;80.41;99498.55;102223;1302;75712;-24
2022/11/10 13:05:13;;;;;;;16.30;9.30;;;;;;;8.32;81.16;99486.15;102127;1302;73876;-24
2022/11/10 13:08:14;;;;;;;16.40;10.60;;;;;;;8.56;80.35;99484.81;102146;1298;61753;-23
2022/11/10 13:11:03;;;;;;;15.70;9.20;;;;;;;8.34;80.95;99479.44;102161;1304;61881;-23
2022/11/10 13:13:56;;;;;;;24.40;12.90;;;;;;;8.17;81.62;99478.64;102025;1300;75834;-23